Time;durP1;ratioP1;P1;durP2;ratioP2;P2;SDS_P1;SDS_P2;PMS_P1;PMS_P2;Temp;Humidity;BMP_temperature;BMP_pressure;BME280_temperature;BME280_humidity;BME280_pressure;Samples;Min_cycle;Max_cycle;Signal;HPM_P1;HPM_P2
2021/10/30 00:01:33;;;;;;;;;16.33;15.00;;;;;;;;5041346;28;8982;-83
2021/10/30 00:04:01;;;;;;;;;17.00;17.00;;;;;;;;5042845;28;9092;-82
2021/10/30 00:06:28;;;;;;;;;16.75;15.00;;;;;;;;5043271;28;8930;-85
2021/10/30 00:08:56;;;;;;;;;21.00;21.00;;;;;;;;5043667;28;8875;-80
2021/10/30 00:11:25;;;;;;;;;16.00;14.33;;;;;;;;5034169;28;8950;-84
2021/10/30 00:13:52;;;;;;;;;14.33;14.33;;;;;;;;5041770;28;8948;-85
2021/10/30 00:16:20;;;;;;;;;17.00;13.25;;;;;;;;5033825;28;9623;-72
2021/10/30 00:18:47;;;;;;;;;14.50;12.75;;;;;;;;5040897;28;8849;-73
2021/10/30 00:21:17;;;;;;;;;15.67;15.67;;;;;;;;5039567;28;8900;-75
2021/10/30 00:23:45;;;;;;;;;15.00;13.00;;;;;;;;5042757;28;8947;-85
2021/10/30 00:26:13;;;;;;;;;18.75;16.50;;;;;;;;5042556;28;8992;-75
2021/10/30 00:28:43;;;;;;;;;15.67;15.67;;;;;;;;5043514;28;8877;-74
2021/10/30 00:31:10;;;;;;;;;10.25;10.25;;;;;;;;5041045;28;8898;-79
2021/10/30 00:33:39;;;;;;;;;14.75;14.00;;;;;;;;5043641;28;8858;-86
2021/10/30 00:36:06;;;;;;;;;16.00;14.33;;;;;;;;5039946;28;8849;-82
2021/10/30 00:38:34;;;;;;;;;12.67;12.67;;;;;;;;5043618;28;8994;-87
2021/10/30 00:41:04;;;;;;;;;15.00;15.00;;;;;;;;5042375;28;8964;-76
2021/10/30 00:43:32;;;;;;;;;18.50;16.50;;;;;;;;5037413;28;8964;-78
2021/10/30 00:46:01;;;;;;;;;16.25;12.00;;;;;;;;5042923;28;8865;-78
2021/10/30 00:48:28;;;;;;;;;11.25;11.25;;;;;;;;5039108;28;8978;-80
2021/10/30 00:50:57;;;;;;;;;15.25;14.00;;;;;;;;5043512;28;8903;-81
2021/10/30 00:53:30;;;;;;;;;16.00;12.75;;;;;;;;5042357;28;8858;-75
2021/10/30 00:55:59;;;;;;;;;11.33;11.33;;;;;;;;5042619;28;8884;-75
2021/10/30 00:58:27;;;;;;;;;13.25;13.25;;;;;;;;5042336;28;8946;-73
2021/10/30 01:00:55;;;;;;;;;14.75;14.00;;;;;;;;5039774;28;8843;-78
2021/10/30 01:03:23;;;;;;;;;14.25;14.25;;;;;;;;5043043;28;8972;-75
2021/10/30 01:05:51;;;;;;;;;13.75;13.25;;;;;;;;5042157;28;8897;-80
2021/10/30 01:08:20;;;;;;;;;12.50;12.50;;;;;;;;5043686;28;8926;-79
2021/10/30 01:10:47;;;;;;;;;11.00;9.75;;;;;;;;5028296;28;8888;-75
2021/10/30 01:13:15;;;;;;;;;13.75;12.50;;;;;;;;5041562;28;8879;-76
2021/10/30 01:15:43;;;;;;;;;13.75;13.75;;;;;;;;5042105;28;8883;-76
2021/10/30 01:18:11;;;;;;;;;10.50;10.50;;;;;;;;5041906;28;8857;-76
2021/10/30 01:20:39;;;;;;;;;17.00;17.00;;;;;;;;5042957;28;8885;-75
2021/10/30 01:23:07;;;;;;;;;15.25;12.75;;;;;;;;5041849;28;8887;-81
2021/10/30 01:25:34;;;;;;;;;14.00;11.25;;;;;;;;5044862;28;8854;-82
2021/10/30 01:28:01;;;;;;;;;11.75;11.75;;;;;;;;5045957;28;8953;-87
2021/10/30 01:30:29;;;;;;;;;14.25;13.00;;;;;;;;5045914;28;8804;-82
2021/10/30 01:32:58;;;;;;;;;9.75;9.25;;;;;;;;5045868;28;8877;-74
2021/10/30 01:35:29;;;;;;;;;12.75;12.75;;;;;;;;5046292;28;9047;-79
2021/10/30 01:37:58;;;;;;;;;11.50;11.00;;;;;;;;5046429;28;8887;-74
2021/10/30 01:40:26;;;;;;;;;10.75;10.75;;;;;;;;5044879;28;8896;-74
2021/10/30 01:42:55;;;;;;;;;10.00;10.00;;;;;;;;5046343;28;8928;-78
2021/10/30 01:45:23;;;;;;;;;11.25;10.00;;;;;;;;5044200;28;8858;-79
2021/10/30 01:47:50;;;;;;;;;14.50;10.25;;;;;;;;5046644;28;8864;-74
2021/10/30 01:50:18;;;;;;;;;11.75;11.00;;;;;;;;5045814;28;8870;-76
2021/10/30 01:52:49;;;;;;;;;11.75;11.50;;;;;;;;5045691;28;8908;-77
2021/10/30 01:55:18;;;;;;;;;11.75;10.75;;;;;;;;5037591;28;8893;-80
2021/10/30 01:57:46;;;;;;;;;12.25;12.00;;;;;;;;5041781;28;8959;-76
2021/10/30 02:00:17;;;;;;;;;10.50;10.50;;;;;;;;5043996;28;8873;-83
2021/10/30 02:02:45;;;;;;;;;10.25;10.25;;;;;;;;5044176;28;9011;-84
2021/10/30 02:05:13;;;;;;;;;11.00;10.50;;;;;;;;5046237;28;8975;-77
2021/10/30 02:07:41;;;;;;;;;10.75;10.75;;;;;;;;5045044;28;8876;-77
2021/10/30 02:10:10;;;;;;;;;9.50;9.50;;;;;;;;5045797;28;8907;-74
2021/10/30 02:12:39;;;;;;;;;11.00;11.00;;;;;;;;5045715;28;8884;-79
2021/10/30 02:15:08;;;;;;;;;12.25;9.75;;;;;;;;5045977;28;8972;-79
2021/10/30 02:17:35;;;;;;;;;12.00;10.75;;;;;;;;5044805;28;8869;-80
2021/10/30 02:20:03;;;;;;;;;11.25;11.25;;;;;;;;5039091;28;8896;-83
2021/10/30 02:22:30;;;;;;;;;13.00;11.50;;;;;;;;5045844;28;8995;-82
2021/10/30 02:24:57;;;;;;;;;10.00;10.00;;;;;;;;5044764;28;8893;-81
2021/10/30 02:27:25;;;;;;;;;16.75;15.25;;;;;;;;5044334;28;8861;-73
2021/10/30 02:29:53;;;;;;;;;16.00;12.00;;;;;;;;5043633;28;8837;-80
2021/10/30 02:32:21;;;;;;;;;14.00;12.50;;;;;;;;5043627;28;8829;-74
2021/10/30 02:34:48;;;;;;;;;14.75;12.75;;;;;;;;5045634;28;8862;-77
2021/10/30 02:37:15;;;;;;;;;10.25;10.25;;;;;;;;5043049;28;8868;-80
2021/10/30 02:39:43;;;;;;;;;12.75;11.50;;;;;;;;5039371;28;8988;-84
2021/10/30 02:42:11;;;;;;;;;16.25;13.00;;;;;;;;5042635;28;8887;-83
2021/10/30 02:44:38;;;;;;;;;16.00;12.00;;;;;;;;5043404;28;9010;-81
2021/10/30 02:47:07;;;;;;;;;12.00;12.00;;;;;;;;5042801;28;8861;-74
2021/10/30 02:49:34;;;;;;;;;13.50;12.75;;;;;;;;5044924;28;8861;-81
2021/10/30 02:52:08;;;;;;;;;11.25;11.25;;;;;;;;5044412;28;8873;-72
2021/10/30 02:54:36;;;;;;;;;14.00;14.00;;;;;;;;5042678;28;8930;-83
2021/10/30 02:57:03;;;;;;;;;14.50;13.25;;;;;;;;5044259;28;8881;-74
2021/10/30 02:59:31;;;;;;;;;10.75;10.25;;;;;;;;5042780;28;8865;-74
2021/10/30 03:01:59;;;;;;;;;13.75;13.50;;;;;;;;5044167;28;8806;-74
2021/10/30 03:04:28;;;;;;;;;12.25;12.25;;;;;;;;5044224;28;8881;-73
2021/10/30 03:06:55;;;;;;;;;12.50;10.50;;;;;;;;5040380;28;8869;-76
2021/10/30 03:09:23;;;;;;;;;9.25;8.00;;;;;;;;5044417;28;9043;-82
2021/10/30 03:11:50;;;;;;;;;11.25;11.25;;;;;;;;5043922;28;9006;-82
2021/10/30 03:14:17;;;;;;;;;12.50;12.50;;;;;;;;5045181;28;8877;-85
2021/10/30 03:16:45;;;;;;;;;12.00;12.00;;;;;;;;5043035;28;8865;-85
2021/10/30 03:19:12;;;;;;;;;10.00;10.00;;;;;;;;5041686;28;8891;-83
2021/10/30 03:21:41;;;;;;;;;11.75;11.50;;;;;;;;5043094;28;8903;-80
2021/10/30 03:24:09;;;;;;;;;14.50;12.00;;;;;;;;5044761;28;9678;-83
2021/10/30 03:26:36;;;;;;;;;12.25;11.00;;;;;;;;5043328;28;8853;-75
2021/10/30 03:29:04;;;;;;;;;12.25;12.25;;;;;;;;5042691;28;8877;-81
2021/10/30 03:31:31;;;;;;;;;13.00;11.00;;;;;;;;5043911;28;8810;-84
2021/10/30 03:33:59;;;;;;;;;10.00;10.00;;;;;;;;5036561;28;8876;-82
2021/10/30 03:36:26;;;;;;;;;12.50;10.75;;;;;;;;5037389;28;8954;-84
2021/10/30 03:38:55;;;;;;;;;11.00;11.00;;;;;;;;5043324;28;8873;-76
2021/10/30 03:41:22;;;;;;;;;11.25;11.25;;;;;;;;5043567;28;9027;-83
2021/10/30 03:43:50;;;;;;;;;12.33;10.67;;;;;;;;5043694;28;8857;-80
2021/10/30 03:46:17;;;;;;;;;10.25;10.25;;;;;;;;5042747;28;9053;-76
2021/10/30 03:48:45;;;;;;;;;10.33;10.33;;;;;;;;5043878;28;8927;-78
2021/10/30 03:51:12;;;;;;;;;11.25;10.75;;;;;;;;5039935;28;8960;-78
2021/10/30 03:53:40;;;;;;;;;10.00;10.00;;;;;;;;5043749;28;8896;-81
2021/10/30 03:56:09;;;;;;;;;13.25;11.00;;;;;;;;5037522;28;8869;-77
2021/10/30 03:58:36;;;;;;;;;15.50;11.75;;;;;;;;5043210;28;8873;-78
2021/10/30 04:01:04;;;;;;;;;9.25;9.25;;;;;;;;5041155;28;8814;-81
2021/10/30 04:03:31;;;;;;;;;11.25;11.25;;;;;;;;5044154;28;8873;-83
2021/10/30 04:05:58;;;;;;;;;10.50;10.50;;;;;;;;5038378;28;9327;-77
2021/10/30 04:08:26;;;;;;;;;16.50;12.50;;;;;;;;5042080;28;8877;-85
2021/10/30 04:10:53;;;;;;;;;10.75;10.25;;;;;;;;5038262;28;8907;-82
2021/10/30 04:13:22;;;;;;;;;4.00;4.00;;;;;;;;5043965;28;8904;-86
2021/10/30 04:15:50;;;;;;;;;9.75;9.25;;;;;;;;5071345;28;8890;-87
2021/10/30 04:18:17;;;;;;;;;10.00;10.00;;;;;;;;5032527;28;8995;-88
2021/10/30 04:20:45;;;;;;;;;9.25;9.25;;;;;;;;5044641;28;8881;-85
2021/10/30 04:23:12;;;;;;;;;11.75;9.00;;;;;;;;5044562;28;8896;-85
2021/10/30 04:25:40;;;;;;;;;10.75;10.75;;;;;;;;5042235;28;9469;-81
2021/10/30 04:28:07;;;;;;;;;10.25;10.25;;;;;;;;5037658;28;8887;-79
2021/10/30 04:30:36;;;;;;;;;9.75;9.75;;;;;;;;5040495;28;8792;-79
2021/10/30 04:33:04;;;;;;;;;8.50;8.50;;;;;;;;5043817;28;8895;-83
2021/10/30 04:35:32;;;;;;;;;10.75;10.75;;;;;;;;5041415;28;8865;-85
2021/10/30 04:38:02;;;;;;;;;11.00;11.00;;;;;;;;5042184;28;8938;-77
2021/10/30 04:40:30;;;;;;;;;9.00;9.00;;;;;;;;5043037;28;8853;-81
2021/10/30 04:42:57;;;;;;;;;10.00;9.25;;;;;;;;5043706;28;8893;-81
2021/10/30 04:45:24;;;;;;;;;8.75;8.75;;;;;;;;5042252;28;8849;-81
2021/10/30 04:47:53;;;;;;;;;11.50;10.00;;;;;;;;5041345;28;9746;-73
2021/10/30 04:50:20;;;;;;;;;10.25;9.75;;;;;;;;5043909;28;8998;-79
2021/10/30 04:52:47;;;;;;;;;10.00;10.00;;;;;;;;5041678;28;9623;-78
2021/10/30 04:55:17;;;;;;;;;11.75;11.75;;;;;;;;5044302;28;8884;-81
2021/10/30 04:57:44;;;;;;;;;11.00;10.00;;;;;;;;5042393;28;8873;-74
2021/10/30 05:00:13;;;;;;;;;11.00;11.00;;;;;;;;5043652;28;8842;-82
2021/10/30 05:02:40;;;;;;;;;10.00;10.00;;;;;;;;5044477;28;9011;-81
2021/10/30 05:05:09;;;;;;;;;6.75;6.75;;;;;;;;5045514;28;8860;-73
2021/10/30 05:07:36;;;;;;;;;7.75;7.75;;;;;;;;5046156;28;8845;-78
2021/10/30 05:10:04;;;;;;;;;7.50;7.50;;;;;;;;5046187;28;9624;-76
2021/10/30 05:12:32;;;;;;;;;9.25;9.25;;;;;;;;5046901;28;8972;-73
2021/10/30 05:14:59;;;;;;;;;9.00;9.00;;;;;;;;5045859;28;8871;-83
2021/10/30 05:17:26;;;;;;;;;8.25;8.25;;;;;;;;5046515;28;9685;-80
2021/10/30 05:19:54;;;;;;;;;9.00;9.00;;;;;;;;5044948;28;8849;-76
2021/10/30 05:22:22;;;;;;;;;7.50;7.50;;;;;;;;5033650;28;9685;-78
2021/10/30 05:24:50;;;;;;;;;8.25;8.25;;;;;;;;5045841;28;8871;-76
2021/10/30 05:27:17;;;;;;;;;10.75;10.75;;;;;;;;5044936;28;8873;-79
2021/10/30 05:29:44;;;;;;;;;8.25;8.25;;;;;;;;5046978;28;9007;-74
2021/10/30 05:32:12;;;;;;;;;4.75;4.75;;;;;;;;5041125;28;8822;-74
2021/10/30 05:34:39;;;;;;;;;8.75;6.50;;;;;;;;5044368;28;8900;-82
2021/10/30 05:37:07;;;;;;;;;6.50;6.50;;;;;;;;5044118;28;9876;-81
2021/10/30 05:39:36;;;;;;;;;5.00;5.00;;;;;;;;5046384;28;9015;-76
2021/10/30 05:42:05;;;;;;;;;6.50;4.75;;;;;;;;5045258;28;8868;-85
2021/10/30 05:44:34;;;;;;;;;6.25;6.25;;;;;;;;5039211;28;8895;-78
2021/10/30 05:47:02;;;;;;;;;9.00;9.00;;;;;;;;5035009;28;8871;-75
2021/10/30 05:49:29;;;;;;;;;8.00;8.00;;;;;;;;5043703;28;8892;-74
2021/10/30 05:51:57;;;;;;;;;9.00;9.00;;;;;;;;5045087;28;8992;-83
2021/10/30 05:54:24;;;;;;;;;8.00;8.00;;;;;;;;5045959;28;9690;-83
2021/10/30 05:56:53;;;;;;;;;12.00;8.50;;;;;;;;5045414;28;8861;-78
2021/10/30 05:59:20;;;;;;;;;9.25;9.25;;;;;;;;5043305;28;8873;-84
2021/10/30 06:01:47;;;;;;;;;4.25;4.25;;;;;;;;5033069;28;8841;-75
2021/10/30 06:04:15;;;;;;;;;6.50;6.50;;;;;;;;5043017;28;8857;-71
2021/10/30 06:06:42;;;;;;;;;4.75;4.75;;;;;;;;5049518;28;8896;-75
2021/10/30 06:09:09;;;;;;;;;9.25;8.00;;;;;;;;5037019;28;8869;-77
2021/10/30 06:11:37;;;;;;;;;6.50;6.50;;;;;;;;5036190;28;8911;-80
2021/10/30 06:14:06;;;;;;;;;8.25;8.25;;;;;;;;5045486;28;8881;-75
2021/10/30 06:16:33;;;;;;;;;5.25;4.75;;;;;;;;5039275;28;8988;-76
2021/10/30 06:19:01;;;;;;;;;8.00;8.00;;;;;;;;5042231;28;8876;-79
2021/10/30 06:21:28;;;;;;;;;8.00;8.00;;;;;;;;5045404;28;9043;-74
2021/10/30 06:23:58;;;;;;;;;8.50;8.00;;;;;;;;5036485;28;8868;-71
2021/10/30 06:26:26;;;;;;;;;6.25;6.25;;;;;;;;5042448;28;8880;-77
2021/10/30 06:28:53;;;;;;;;;6.00;6.00;;;;;;;;5043121;28;8894;-78
2021/10/30 06:31:23;;;;;;;;;5.00;5.00;;;;;;;;5042206;28;8842;-82
2021/10/30 06:33:51;;;;;;;;;8.00;8.00;;;;;;;;5033633;28;8905;-80
2021/10/30 06:36:18;;;;;;;;;4.50;4.50;;;;;;;;5043752;28;8865;-81
2021/10/30 06:38:46;;;;;;;;;8.75;7.00;;;;;;;;5026549;28;8889;-82
2021/10/30 06:41:14;;;;;;;;;4.75;4.75;;;;;;;;5043587;28;8883;-82
2021/10/30 06:43:41;;;;;;;;;6.50;6.50;;;;;;;;5045306;28;8853;-84
2021/10/30 06:46:08;;;;;;;;;9.75;9.75;;;;;;;;5040892;28;8945;-81
2021/10/30 06:48:38;;;;;;;;;5.00;5.00;;;;;;;;5039782;28;8869;-81
2021/10/30 06:51:05;;;;;;;;;5.25;5.25;;;;;;;;5043917;28;8876;-82
2021/10/30 06:53:33;;;;;;;;;8.25;5.50;;;;;;;;5044672;28;8899;-81
2021/10/30 06:56:00;;;;;;;;;6.50;6.25;;;;;;;;5041626;28;8926;-81
2021/10/30 06:58:28;;;;;;;;;6.00;6.00;;;;;;;;5038666;28;8858;-81
2021/10/30 07:00:55;;;;;;;;;9.00;7.50;;;;;;;;5034659;28;8798;-83
2021/10/30 07:03:23;;;;;;;;;8.00;8.00;;;;;;;;5035827;28;8876;-83
2021/10/30 07:05:52;;;;;;;;;5.75;5.75;;;;;;;;5072792;28;8910;-83
2021/10/30 07:08:19;;;;;;;;;8.25;8.25;;;;;;;;5040498;28;8865;-78
2021/10/30 07:10:46;;;;;;;;;3.00;3.00;;;;;;;;5040164;28;8869;-79
2021/10/30 07:13:16;;;;;;;;;5.75;5.75;;;;;;;;5041967;28;8891;-80
2021/10/30 07:15:44;;;;;;;;;6.50;5.25;;;;;;;;5035555;28;8857;-76
2021/10/30 07:18:12;;;;;;;;;5.50;5.50;;;;;;;;5039202;28;8890;-82
2021/10/30 07:20:39;;;;;;;;;3.00;3.00;;;;;;;;5039193;28;8979;-78
2021/10/30 07:23:08;;;;;;;;;8.00;5.00;;;;;;;;5041333;28;9016;-83
2021/10/30 07:25:35;;;;;;;;;4.00;4.00;;;;;;;;5038017;28;8907;-79
2021/10/30 07:28:03;;;;;;;;;10.50;9.00;;;;;;;;5040653;28;8875;-78
2021/10/30 07:30:30;;;;;;;;;5.50;4.00;;;;;;;;5042070;28;8844;-78
2021/10/30 07:32:57;;;;;;;;;4.50;4.50;;;;;;;;5041080;28;8901;-78
2021/10/30 07:35:25;;;;;;;;;5.75;5.75;;;;;;;;5040794;28;8907;-77
2021/10/30 07:38:00;;;;;;;;;5.75;5.75;;;;;;;;5039430;28;8898;-75
2021/10/30 07:40:30;;;;;;;;;4.75;4.75;;;;;;;;5037323;28;8875;-81
2021/10/30 07:42:58;;;;;;;;;5.50;5.50;;;;;;;;5042537;28;9025;-78
2021/10/30 07:45:26;;;;;;;;;7.50;7.50;;;;;;;;5038698;28;9019;-79
2021/10/30 07:47:54;;;;;;;;;4.00;4.00;;;;;;;;5041704;28;8972;-79
2021/10/30 07:50:21;;;;;;;;;6.00;4.50;;;;;;;;5041509;28;9852;-80
2021/10/30 07:52:49;;;;;;;;;4.25;4.25;;;;;;;;5042877;28;8895;-77
2021/10/30 07:55:16;;;;;;;;;6.00;4.25;;;;;;;;5040349;28;8877;-80
2021/10/30 07:57:45;;;;;;;;;7.50;4.75;;;;;;;;5041239;28;8865;-81
2021/10/30 08:00:13;;;;;;;;;5.75;5.75;;;;;;;;5037741;28;8865;-80
2021/10/30 08:02:42;;;;;;;;;7.75;5.25;;;;;;;;5035195;28;8877;-81
2021/10/30 08:05:10;;;;;;;;;4.50;4.50;;;;;;;;5037029;28;8877;-78
2021/10/30 08:07:38;;;;;;;;;5.00;5.00;;;;;;;;5036155;28;8889;-81
2021/10/30 08:10:07;;;;;;;;;9.00;6.00;;;;;;;;5033532;28;8864;-82
2021/10/30 08:12:35;;;;;;;;;4.00;4.00;;;;;;;;5035390;28;8895;-79
2021/10/30 08:15:05;;;;;;;;;4.50;4.00;;;;;;;;5042951;28;8879;-78
2021/10/30 08:17:33;;;;;;;;;3.25;3.25;;;;;;;;5033375;28;8907;-81
2021/10/30 08:20:01;;;;;;;;;3.50;3.50;;;;;;;;5034212;28;8988;-81
2021/10/30 08:22:29;;;;;;;;;5.00;5.00;;;;;;;;5038509;28;8849;-80
2021/10/30 08:24:56;;;;;;;;;2.75;2.75;;;;;;;;5041784;28;8869;-74
2021/10/30 08:27:23;;;;;;;;;3.25;3.25;;;;;;;;5038345;28;8894;-76
2021/10/30 08:29:50;;;;;;;;;3.00;3.00;;;;;;;;5033773;28;9675;-76
2021/10/30 08:32:19;;;;;;;;;3.50;3.25;;;;;;;;5041135;28;8829;-77
2021/10/30 08:34:47;;;;;;;;;4.50;3.00;;;;;;;;5039497;28;8883;-81
2021/10/30 08:37:14;;;;;;;;;4.00;4.00;;;;;;;;5036702;28;8941;-80
2021/10/30 08:39:41;;;;;;;;;4.00;4.00;;;;;;;;5042627;28;8911;-80
2021/10/30 08:42:09;;;;;;;;;4.50;4.50;;;;;;;;5037478;28;8891;-80
2021/10/30 08:44:37;;;;;;;;;4.00;4.00;;;;;;;;5039957;28;8869;-78
2021/10/30 08:47:06;;;;;;;;;4.75;3.00;;;;;;;;5046477;28;8892;-79
2021/10/30 08:49:37;;;;;;;;;4.00;4.00;;;;;;;;5047892;28;8873;-83
2021/10/30 08:52:06;;;;;;;;;4.25;3.75;;;;;;;;5046076;28;8865;-79
2021/10/30 08:54:35;;;;;;;;;3.25;3.25;;;;;;;;5047341;28;8892;-82
2021/10/30 08:57:03;;;;;;;;;2.75;2.50;;;;;;;;5046313;28;8881;-82
2021/10/30 08:59:41;;;;;;;;;6.00;4.25;;;;;;;;5047271;28;9660;-80
2021/10/30 09:02:09;;;;;;;;;4.25;4.25;;;;;;;;5046943;28;8867;-77
2021/10/30 09:04:38;;;;;;;;;3.75;3.75;;;;;;;;5044640;28;8900;-78
2021/10/30 09:07:08;;;;;;;;;6.25;5.00;;;;;;;;5048108;28;8861;-84
2021/10/30 09:09:37;;;;;;;;;4.00;4.00;;;;;;;;5045054;28;8857;-81
2021/10/30 09:12:05;;;;;;;;;3.00;3.00;;;;;;;;5046105;28;8849;-81
2021/10/30 09:14:34;;;;;;;;;5.75;4.00;;;;;;;;5045374;28;8877;-81
2021/10/30 09:17:17;;;;;;;;;3.00;3.00;;;;;;;;5045060;28;8881;-82
2021/10/30 09:19:48;;;;;;;;;4.25;4.25;;;;;;;;5043141;28;8865;-82
2021/10/30 09:22:17;;;;;;;;;4.00;4.00;;;;;;;;5042945;28;8857;-82
2021/10/30 09:28:08;;;;;;;;;4.75;4.75;;;;;;;;5045536;28;8833;-80
2021/10/30 09:30:37;;;;;;;;;5.25;5.25;;;;;;;;5042814;28;8798;-78
2021/10/30 09:33:08;;;;;;;;;5.50;4.75;;;;;;;;5044847;28;8954;-79
2021/10/30 09:35:43;;;;;;;;;5.25;5.25;;;;;;;;5044829;28;8873;-83
2021/10/30 09:38:12;;;;;;;;;3.50;3.50;;;;;;;;5046471;28;8903;-83
2021/10/30 09:40:42;;;;;;;;;4.50;3.50;;;;;;;;5040902;28;8857;-85
2021/10/30 09:43:14;;;;;;;;;4.00;3.00;;;;;;;;5046353;28;9643;-75
2021/10/30 09:45:45;;;;;;;;;3.50;3.50;;;;;;;;5044200;28;8993;-80
2021/10/30 09:48:13;;;;;;;;;3.75;3.75;;;;;;;;5047026;28;8896;-82
2021/10/30 09:50:42;;;;;;;;;5.00;5.00;;;;;;;;5046409;28;8865;-83
2021/10/30 09:53:27;;;;;;;;;4.00;4.00;;;;;;;;5045480;28;8913;-82
2021/10/30 09:55:58;;;;;;;;;2.75;2.75;;;;;;;;5037753;28;9010;-82
2021/10/30 09:58:34;;;;;;;;;3.00;3.00;;;;;;;;5042342;28;8905;-81
2021/10/30 10:01:05;;;;;;;;;3.50;3.00;;;;;;;;5045281;28;8916;-81
2021/10/30 10:03:33;;;;;;;;;3.00;3.00;;;;;;;;5046123;28;8881;-81
2021/10/30 10:06:05;;;;;;;;;4.00;4.00;;;;;;;;5045839;28;8924;-82
2021/10/30 10:08:37;;;;;;;;;3.25;3.25;;;;;;;;5047034;28;8860;-87
2021/10/30 10:11:07;;;;;;;;;3.50;3.50;;;;;;;;5038912;28;8873;-82
2021/10/30 10:13:38;;;;;;;;;4.50;4.00;;;;;;;;5043727;28;9675;-81
2021/10/30 10:16:09;;;;;;;;;3.00;3.00;;;;;;;;5041241;28;8885;-83
2021/10/30 10:18:36;;;;;;;;;4.25;3.00;;;;;;;;5039166;28;8942;-81
2021/10/30 10:21:06;;;;;;;;;4.25;4.25;;;;;;;;5046594;28;8857;-84
2021/10/30 10:23:36;;;;;;;;;3.00;3.00;;;;;;;;5048998;28;8885;-83
2021/10/30 10:26:03;;;;;;;;;6.00;4.75;;;;;;;;5055352;28;8861;-83
2021/10/30 10:31:55;;;;;;;;;2.75;2.75;;;;;;;;5109697;23;8892;-81
2021/10/30 10:34:29;;;;;;;;;4.00;4.00;;;;;;;;5021815;28;8891;-79
2021/10/30 10:37:24;;;;;;;;;3.25;3.00;;;;;;;;5024606;28;8856;-78
2021/10/30 10:39:54;;;;;;;;;3.75;3.75;;;;;;;;5022363;28;8884;-78
2021/10/30 10:42:41;;;;;;;;;3.25;1.75;;;;;;;;5025035;28;8860;-78
2021/10/30 10:45:09;;;;;;;;;4.00;2.00;;;;;;;;5023426;28;8871;-79
2021/10/30 10:48:03;;;;;;;;;3.00;3.00;;;;;;;;5023653;28;9069;-77
2021/10/30 10:50:53;;;;;;;;;0.25;0.25;;;;;;;;5018315;28;8863;-78
2021/10/30 10:53:36;;;;;;;;;2.75;1.50;;;;;;;;5017670;28;8863;-80
2021/10/30 10:56:17;;;;;;;;;3.25;3.25;;;;;;;;5021064;28;8868;-77
2021/10/30 10:59:13;;;;;;;;;2.00;2.00;;;;;;;;5022958;28;8945;-75
2021/10/30 11:01:42;;;;;;;;;5.00;3.75;;;;;;;;4996810;28;8879;-77
2021/10/30 11:04:14;;;;;;;;;3.00;3.00;;;;;;;;5023408;28;8904;-78
2021/10/30 11:06:45;;;;;;;;;4.00;3.00;;;;;;;;5021133;28;8904;-76
2021/10/30 11:09:18;;;;;;;;;2.00;2.00;;;;;;;;5020938;28;8880;-77
2021/10/30 11:11:46;;;;;;;;;4.50;4.50;;;;;;;;5020743;28;8919;-78
2021/10/30 11:14:14;;;;;;;;;5.00;5.00;;;;;;;;5020143;28;8883;-77
2021/10/30 11:16:45;;;;;;;;;5.00;5.00;;;;;;;;5023004;28;8884;-77
2021/10/30 11:19:21;;;;;;;;;3.00;3.00;;;;;;;;5021190;28;8860;-78
2021/10/30 11:21:52;;;;;;;;;2.75;2.75;;;;;;;;5020610;28;8864;-77
2021/10/30 11:24:27;;;;;;;;;3.75;3.75;;;;;;;;5022594;28;8865;-78
2021/10/30 11:27:04;;;;;;;;;4.00;4.00;;;;;;;;5020370;28;8894;-77
2021/10/30 11:29:32;;;;;;;;;4.75;4.75;;;;;;;;5023686;28;8942;-77
2021/10/30 11:32:02;;;;;;;;;4.25;4.25;;;;;;;;5019014;28;9202;-77
2021/10/30 11:34:29;;;;;;;;;5.00;4.50;;;;;;;;5022917;28;8907;-78
2021/10/30 11:36:58;;;;;;;;;5.00;5.00;;;;;;;;5021963;28;8848;-81
2021/10/30 11:39:29;;;;;;;;;3.00;3.00;;;;;;;;5020989;28;8868;-78
2021/10/30 11:41:57;;;;;;;;;4.00;4.00;;;;;;;;5023578;28;8886;-78
2021/10/30 11:44:25;;;;;;;;;3.50;3.50;;;;;;;;5017432;28;8975;-80
2021/10/30 11:46:55;;;;;;;;;4.00;4.00;;;;;;;;5017958;28;8890;-80
2021/10/30 11:49:27;;;;;;;;;3.25;3.25;;;;;;;;5022426;28;8868;-78
2021/10/30 11:52:01;;;;;;;;;5.25;4.00;;;;;;;;5024029;28;8974;-79
2021/10/30 11:54:31;;;;;;;;;4.00;4.00;;;;;;;;5022050;28;9886;-77
2021/10/30 11:56:58;;;;;;;;;3.75;3.75;;;;;;;;5021920;28;8896;-78
2021/10/30 11:59:25;;;;;;;;;2.00;2.00;;;;;;;;5021893;28;8856;-79
2021/10/30 12:01:52;;;;;;;;;4.00;4.00;;;;;;;;5020226;28;8845;-79
2021/10/30 12:04:21;;;;;;;;;5.00;5.00;;;;;;;;5022052;28;8860;-79
2021/10/30 12:06:50;;;;;;;;;3.00;3.00;;;;;;;;5020639;28;8994;-80
2021/10/30 12:09:20;;;;;;;;;4.75;4.75;;;;;;;;5020382;28;8882;-79
2021/10/30 12:11:49;;;;;;;;;5.25;5.00;;;;;;;;5021469;28;8859;-82
2021/10/30 12:14:24;;;;;;;;;4.00;4.00;;;;;;;;5020291;28;9006;-85
2021/10/30 12:16:52;;;;;;;;;4.75;3.50;;;;;;;;5012199;28;8880;-78
2021/10/30 12:19:21;;;;;;;;;3.00;3.00;;;;;;;;5021405;28;8906;-80
2021/10/30 12:21:48;;;;;;;;;4.75;4.75;;;;;;;;5022707;28;8895;-78
2021/10/30 12:24:16;;;;;;;;;3.50;3.50;;;;;;;;5020810;28;8897;-78
2021/10/30 12:26:55;;;;;;;;;3.75;3.75;;;;;;;;5020213;28;8888;-77
2021/10/30 12:29:24;;;;;;;;;5.50;5.00;;;;;;;;5021816;28;8864;-76
2021/10/30 12:32:01;;;;;;;;;4.00;4.00;;;;;;;;5015714;28;8983;-76
2021/10/30 12:34:30;;;;;;;;;4.00;3.25;;;;;;;;5020938;28;8991;-75
2021/10/30 12:36:58;;;;;;;;;4.00;4.00;;;;;;;;5019063;28;9059;-76
2021/10/30 12:39:27;;;;;;;;;3.50;3.50;;;;;;;;5021450;28;8894;-77
2021/10/30 12:41:57;;;;;;;;;2.00;2.00;;;;;;;;5019244;28;8930;-80
2021/10/30 12:44:30;;;;;;;;;5.00;5.00;;;;;;;;5020299;28;8868;-83
2021/10/30 12:47:01;;;;;;;;;4.50;4.50;;;;;;;;5020365;28;8872;-78
2021/10/30 12:49:31;;;;;;;;;3.75;3.75;;;;;;;;5015413;28;8876;-79
2021/10/30 12:52:05;;;;;;;;;4.50;4.50;;;;;;;;5022225;28;8868;-78
2021/10/30 12:54:33;;;;;;;;;4.25;4.25;;;;;;;;5021532;28;8864;-75
2021/10/30 12:57:02;;;;;;;;;2.75;2.75;;;;;;;;5018044;28;8912;-81
2021/10/30 12:59:40;;;;;;;;;4.00;4.00;;;;;;;;5018887;28;8887;-81
2021/10/30 13:02:07;;;;;;;;;4.75;4.75;;;;;;;;5020334;28;9611;-76
2021/10/30 13:04:40;;;;;;;;;4.50;4.50;;;;;;;;5022313;28;8836;-76
2021/10/30 13:07:08;;;;;;;;;4.50;4.50;;;;;;;;5020284;28;8898;-77
2021/10/30 13:09:36;;;;;;;;;5.00;5.00;;;;;;;;5021780;28;8867;-77
2021/10/30 13:12:06;;;;;;;;;5.25;3.50;;;;;;;;5021893;28;8894;-77
2021/10/30 13:14:34;;;;;;;;;6.00;6.00;;;;;;;;5023209;28;8892;-78
2021/10/30 13:17:02;;;;;;;;;5.50;5.50;;;;;;;;5021556;28;8911;-80
2021/10/30 13:19:29;;;;;;;;;5.00;5.00;;;;;;;;5022768;28;8875;-79
2021/10/30 13:21:56;;;;;;;;;4.00;4.00;;;;;;;;5025839;28;8860;-79
2021/10/30 13:24:24;;;;;;;;;2.75;2.75;;;;;;;;5040563;28;9519;-80
2021/10/30 13:26:51;;;;;;;;;4.00;4.00;;;;;;;;5027114;28;8926;-79
2021/10/30 13:29:20;;;;;;;;;3.75;3.75;;;;;;;;5026481;28;8872;-81
2021/10/30 13:31:48;;;;;;;;;5.75;5.75;;;;;;;;5024965;28;9707;-83
2021/10/30 13:34:16;;;;;;;;;6.00;6.00;;;;;;;;5027366;28;9022;-85
2021/10/30 13:36:43;;;;;;;;;4.00;4.00;;;;;;;;5026409;28;9010;-80
2021/10/30 13:39:11;;;;;;;;;6.25;5.00;;;;;;;;5026050;28;9705;-79
2021/10/30 13:41:38;;;;;;;;;5.50;5.50;;;;;;;;5025788;28;8875;-82
2021/10/30 13:44:06;;;;;;;;;4.75;4.75;;;;;;;;5027246;28;8994;-81
2021/10/30 13:46:36;;;;;;;;;4.50;4.50;;;;;;;;5024294;28;8875;-81
2021/10/30 13:49:05;;;;;;;;;1.50;1.50;;;;;;;;5025261;28;8860;-80
2021/10/30 13:51:32;;;;;;;;;1.25;1.25;;;;;;;;5023087;28;8894;-79
2021/10/30 13:53:59;;;;;;;;;2.25;2.00;;;;;;;;5026228;28;8872;-79
2021/10/30 13:56:27;;;;;;;;;3.00;1.50;;;;;;;;5025912;28;9811;-80
2021/10/30 13:58:55;;;;;;;;;1.00;1.00;;;;;;;;5022742;28;8876;-79
2021/10/30 14:01:23;;;;;;;;;1.00;1.00;;;;;;;;5025115;28;8817;-81
2021/10/30 14:03:55;;;;;;;;;1.00;1.00;;;;;;;;5025494;28;9716;-82
2021/10/30 14:06:22;;;;;;;;;2.00;2.00;;;;;;;;5026205;28;8871;-83
2021/10/30 14:08:51;;;;;;;;;1.00;1.00;;;;;;;;5025330;28;9378;-78
2021/10/30 14:11:20;;;;;;;;;2.00;1.00;;;;;;;;5025642;28;8975;-81
2021/10/30 14:13:47;;;;;;;;;0.00;0.00;;;;;;;;5025404;28;8860;-81
2021/10/30 14:16:15;;;;;;;;;2.25;0.00;;;;;;;;5024610;28;8860;-81
2021/10/30 14:18:43;;;;;;;;;1.25;1.25;;;;;;;;5025517;28;8905;-80
2021/10/30 14:21:13;;;;;;;;;2.00;2.00;;;;;;;;5024194;28;8991;-80
2021/10/30 14:23:41;;;;;;;;;1.50;1.50;;;;;;;;5025413;28;8864;-81
2021/10/30 14:26:09;;;;;;;;;1.50;1.50;;;;;;;;5024509;28;8872;-81
2021/10/30 14:28:38;;;;;;;;;2.00;2.00;;;;;;;;5025446;28;8977;-79
2021/10/30 14:31:08;;;;;;;;;1.00;1.00;;;;;;;;5023698;28;8838;-80
2021/10/30 14:33:36;;;;;;;;;0.75;0.50;;;;;;;;5024323;28;8852;-80
2021/10/30 14:36:03;;;;;;;;;1.75;1.75;;;;;;;;5024933;28;8871;-79
2021/10/30 14:38:33;;;;;;;;;1.00;1.00;;;;;;;;5023324;28;8882;-80
2021/10/30 14:41:01;;;;;;;;;0.00;0.00;;;;;;;;5025516;28;8880;-82
2021/10/30 14:43:28;;;;;;;;;1.00;1.00;;;;;;;;5018702;28;8930;-77
2021/10/30 14:45:56;;;;;;;;;1.00;1.00;;;;;;;;5023771;28;8860;-77
2021/10/30 14:48:24;;;;;;;;;0.50;0.50;;;;;;;;5024526;28;9667;-83
2021/10/30 14:50:54;;;;;;;;;1.00;1.00;;;;;;;;5023051;28;8902;-78
2021/10/30 14:53:22;;;;;;;;;1.25;1.00;;;;;;;;5022799;28;8954;-79
2021/10/30 14:55:51;;;;;;;;;1.00;1.00;;;;;;;;5023877;28;8898;-79
2021/10/30 14:58:18;;;;;;;;;0.50;0.50;;;;;;;;5024849;28;8872;-84
2021/10/30 15:00:46;;;;;;;;;1.00;1.00;;;;;;;;5021837;28;9589;-82
2021/10/30 15:03:13;;;;;;;;;1.00;1.00;;;;;;;;5024307;28;8872;-80
2021/10/30 15:05:44;;;;;;;;;1.00;1.00;;;;;;;;5024282;28;8890;-81